ADDS METAR Data INFO
IDs: Format: Raw Decoded Include TAF

Data at: 0546 UTC 25 Feb 2018

KCOT 250453Z AUTO 03008KT 8SM BKN038 21/19 A2991 RMK AO2 SLP121 T02110194
KCOT 250353Z AUTO 04004KT 7SM FEW047 21/19 A2991 RMK AO2 SLP121 T02060194
KCOT 250253Z AUTO 04005KT 8SM CLR 21/19 A2988 RMK AO2 SLP113 T02110194 53020
KCOT 250153Z AUTO 01005KT 8SM CLR 21/19 A2986 RMK AO2 SLP107 T02110194
KCOT 250053Z AUTO 02006KT 9SM CLR 22/20 A2983 RMK AO2 SLP096 T02170200
KCOT 242353Z AUTO 02006KT 8SM FEW025 23/20 A2982 RMK AO2 SLP093 T02280200 10244 20217 55001
KCOT 242253Z AUTO 34005KT 8SM CLR 23/20 A2981 RMK AO2 SLP090 T02330200
KCOT 242153Z AUTO 32003KT 9SM FEW024 23/20 A2982 RMK AO2 SLP092 T02330200
KCOT 242053Z AUTO 32004KT 9SM SCT022 24/20 A2983 RMK AO2 SLP094 T02390200 56020
KCOT 242035Z AUTO 20003KT 9SM BKN023 24/19 A2982 RMK AO2 T02390194
KCOT 242015Z AUTO 00000KT 9SM SCT026 24/20 A2983 RMK AO2 T02390200
KCOT 241953Z AUTO 22004KT 9SM BKN022 OVC026 23/20 A2984 RMK AO2 SLP100 T02330200
KCOT 241853Z AUTO 18005KT 8SM OVC017 22/20 A2987 RMK AO2 SLP107 T02220200
KCOT 241809Z AUTO 15004KT 8SM OVC015 22/20 A2988 RMK AO2 T02170200
KCOT 241753Z AUTO 19005KT 8SM OVC014 22/20 A2989 RMK AO2 SLP114 T02170200 10217 20194 50001
KCOT 241701Z AUTO 17006KT 9SM BKN014 OVC022 22/19 A2990 RMK AO2 T02170194
KCOT 241653Z AUTO 18005KT 9SM SCT011 OVC022 22/19 A2989 RMK AO2 SLP117 T02170194
KCOT 241553Z AUTO 00000KT 7SM OVC020 21/20 A2989 RMK AO2 SLP118 T02060200
KCOT 241453Z AUTO 16004KT 5SM BR OVC021 20/19 A2988 RMK AO2 SLP114 T02000194 53006
KCOT 241353Z AUTO 17004KT 5SM BR OVC021 19/19 A2987 RMK AO2 SLP111 T01940194
KCOT 241334Z AUTO 18004KT 4SM BR FEW014 OVC023 19/19 A2987 RMK AO2 T01940194
KCOT 241326Z AUTO 16004KT 2 1/2SM BR FEW014 OVC025 19/19 A2986 RMK AO2 T01940194
KCOT 241253Z AUTO 18004KT 4SM BR BKN016 OVC025 19/19 A2987 RMK AO2 SLP109 T01940194
KCOT 241153Z AUTO 16006KT 6SM BR FEW013 SCT018 OVC025 19/19 A2986 RMK AO2 RAE1057 SLP107 P0001 60004 70007 T01940194 10200 20189 55004
KCOT 241140Z AUTO 15008KT 6SM BR FEW009 SCT014 OVC027 19/19 A2986 RMK AO2 RAE1057 P0001 T01940194
KCOT 241119Z AUTO 19005KT 7SM FEW009 BKN014 20/20 A2987 RMK AO2 RAE1057 P0001 T02000200
KCOT 241053Z AUTO 14010KT 6SM -RA BR FEW026 SCT100 19/19 A2986 RMK AO2 RAB00E10B34 SLP104 P0000 T01940194
KCOT 241037Z AUTO 13010KT 6SM -RA BR SCT020 SCT050 BKN100 19/19 A2985 RMK AO2 RAB00E10B34 P0000 T01940194
KCOT 240953Z AUTO 14012KT 4SM BR OVC016 19/19 A2987 RMK AO2 RAE0858 SLP109 P0000 T01940194
KCOT 240853Z AUTO 13015KT 7SM -RA BKN020 BKN110 19/19 A2987 RMK AO2 SLP111 P0002 60003 T01940194 58024
KCOT 240814Z AUTO 11012KT 4SM -RA BR SCT011 BKN036 OVC110 19/19 A2988 RMK AO2 PRESFR P0001 T01890189
KCOT 240809Z AUTO 11011KT 3SM -RA BR BKN005 BKN026 OVC110 19/19 A2989 RMK AO2 PRESFR P0000 T01890189
KCOT 240753Z AUTO 12004KT 2 1/2SM -RA BR FEW003 BKN008 OVC015 19/19 A2993 RMK AO2 RAB07E18B47 SLP130 P0001 T01940194
KCOT 240653Z AUTO 10004KT 6SM BR OVC009 19/19 A2994 RMK AO2 LTG DSNT NW CIG 006V011 SLP134 T01890189
KCOT 240635Z AUTO 14004KT 6SM BR BKN009 OVC031 19/19 A2995 RMK AO2 LTG DSNT W CIG 007V012 T01890189
KCOT 240553Z AUTO 13007KT 6SM BR OVC046 19/19 A2995 RMK AO2 SLP136 T01890189 10189 20156 401890106 55005
KCOT 240453Z AUTO 10006KT 7SM SCT045 18/18 A2994 RMK AO2 SLP135 T01780178
KCOT 240405Z AUTO 06007KT 5SM BR SCT017 OVC047 18/18 A2994 RMK AO2 T01780178
KCOT 240353Z AUTO 05007KT 5SM BR BKN017 OVC047 17/17 A2995 RMK AO2 SLP136 T01720172
KCOT 240300Z AUTO 03005KT 5SM BR BKN021 BKN044 17/16 A2996 RMK AO2 T01670161
KCOT 240253Z AUTO 04004KT 5SM BR SCT020 BKN044 16/16 A2996 RMK AO2 SLP142 T01610161 56003
KCOT 240153Z AUTO 01003KT 4SM BR FEW024 BKN040 16/16 A2996 RMK AO2 SLP142 T01610161
KCOT 240053Z AUTO 00000KT 6SM BR OVC041 17/17 A2996 RMK AO2 SLP142 T01670167
KCOT 240023Z AUTO 33004KT 5SM BR FEW003 SCT025 OVC039 17/17 A2997 RMK AO2 T01670167
KCOT 240013Z AUTO 33005KT 5SM BR FEW003 BKN025 OVC036 17/17 A2997 RMK AO2 T01670167
KCOT 240004Z AUTO 34003KT 5SM BR BKN003 BKN027 OVC034 17/17 A2997 RMK AO2 CIG 002V007 T01670167
KCOT 232353Z AUTO 34004KT 5SM BR SCT003 OVC036 17/17 A2997 RMK AO2 SLP145 60001 T01670167 10167 20133 56015
KCOT 232329Z AUTO 00000KT 5SM BR SCT005 OVC035 17/17 A2998 RMK AO2 T01670167
KCOT 232253Z AUTO 09003KT 5SM BR OVC003 16/16 A2997 RMK AO2 SLP146 T01610161
KCOT 232224Z AUTO 07003KT 4SM BR OVC002 16/16 A2998 RMK AO2 T01560156
KCOT 232207Z AUTO 36003KT 2SM BR OVC002 16/16 A2999 RMK AO2 T01560156
KCOT 232153Z AUTO 00000KT 1 3/4SM BR OVC002 16/16 A2999 RMK AO2 SLP154 T01560156
KCOT 232053Z AUTO 06003KT 1 1/2SM BR OVC002 14/14 A3002 RMK AO2 SLP161 60001 T01440144 57032
KCOT 231953Z AUTO 10005KT 2SM BR OVC003 14/14 A3004 RMK AO2 RAE16 SLP170 P0000 T01390139
KCOT 231928Z AUTO 10003KT 2 1/2SM BR OVC003 14/14 A3007 RMK AO2 RAE16 P0000 T01390139
KCOT 231853Z AUTO 08003KT 1 3/4SM -RA BR OVC003 13/13 A3009 RMK AO2 RAE10B41 SLP186 P0001 T01330133
KCOT 231753Z AUTO 09004KT 1 1/2SM -RA BR OVC003 13/13 A3011 RMK AO2 RAB37 SLP194 P0000 60002 T01280128 10128 20117 58007